Time;durP1;ratioP1;P1;durP2;ratioP2;P2;SDS_P1;SDS_P2;PMS_P1;PMS_P2;Temp;Humidity;BMP_temperature;BMP_pressure;BME280_temperature;BME280_humidity;BME280_pressure;Samples;Min_cycle;Max_cycle;Signal;HPM_P1;HPM_P2
2024/04/24 00:01:36;;;;;;;25.38;16.30;;;4.30;99.90;;;8.26;100.00;100140.72;5429570;26;20067;-77
2024/04/24 00:04:03;;;;;;;27.30;17.35;;;4.30;99.90;;;8.40;100.00;100163.25;5392777;26;19999;-77
2024/04/24 00:06:29;;;;;;;25.58;17.48;;;4.30;99.90;;;8.21;100.00;100147.59;5425382;26;20079;-76
2024/04/24 00:08:55;;;;;;;27.75;16.83;;;4.30;99.90;;;8.01;100.00;100125.91;5415126;26;20011;-76
2024/04/24 00:11:23;;;;;;;26.63;17.95;;;4.30;99.90;;;7.68;100.00;100134.97;5437185;26;20029;-75
2024/04/24 00:13:50;;;;;;;27.05;18.23;;;4.30;99.90;;;7.61;100.00;100098.84;5371558;26;20553;-76
2024/04/24 00:16:17;;;;;;;29.80;18.88;;;4.30;99.90;;;7.92;100.00;100116.34;5416053;26;19996;-76
2024/04/24 00:18:43;;;;;;;31.52;20.27;;;4.20;99.90;;;8.30;100.00;100134.63;5420495;26;20003;-76
2024/04/24 00:21:11;;;;;;;31.27;20.45;;;4.20;99.90;;;8.05;100.00;100105.44;5408083;26;19995;-77
2024/04/24 00:23:39;;;;;;;31.17;18.52;;;4.20;99.90;;;8.10;100.00;100131.16;5401726;26;20005;-76
2024/04/24 00:26:06;;;;;;;32.83;20.35;;;4.20;99.90;;;8.30;100.00;100125.66;5421733;26;20006;-76
2024/04/24 00:28:33;;;;;;;30.70;20.38;;;4.20;99.90;;;8.09;100.00;100110.44;5426243;26;20427;-76
2024/04/24 00:30:59;;;;;;;36.63;21.40;;;4.20;99.90;;;7.77;100.00;100111.16;5438828;26;20492;-76
2024/04/24 00:33:25;;;;;;;33.20;20.90;;;4.20;99.90;;;8.10;100.00;100107.50;5440523;26;20003;-76
2024/04/24 00:35:51;;;;;;;36.17;22.02;;;4.20;99.90;;;7.73;100.00;100093.63;5427984;26;20076;-76
2024/04/24 00:38:17;;;;;;;35.65;21.50;;;4.20;99.90;;;7.70;100.00;100070.41;5414228;26;20011;-76
2024/04/24 00:40:43;;;;;;;36.15;22.17;;;4.20;99.90;;;7.65;100.00;100063.94;5424125;26;20009;-76
2024/04/24 00:43:10;;;;;;;35.85;22.33;;;4.20;99.90;;;7.85;100.00;100099.22;5415847;26;20339;-76
2024/04/24 00:45:36;;;;;;;39.22;23.00;;;4.20;99.90;;;7.38;100.00;100047.69;5395270;26;20080;-76
2024/04/24 00:48:06;;;;;;;41.78;24.10;;;4.20;99.90;;;7.66;100.00;100081.91;5388567;26;20011;-76
2024/04/24 00:50:34;;;;;;;41.35;22.80;;;4.20;99.90;;;7.51;100.00;100088.41;5429288;26;20019;-77
2024/04/24 00:53:00;;;;;;;;;;;4.20;99.90;;;7.68;100.00;100082.53;5414690;26;20014;-77
2024/04/24 00:55:26;;;;;;;38.25;22.08;;;4.10;99.90;;;7.55;100.00;100077.94;5425000;26;19932;-76
2024/04/24 00:57:55;;;;;;;37.67;22.95;;;4.20;99.90;;;7.43;100.00;100065.03;5419326;26;20330;-75
2024/04/24 01:00:21;;;;;;;39.67;22.95;;;4.20;99.90;;;7.53;100.00;100007.59;5420002;26;19999;-77
2024/04/24 01:02:48;;;;;;;38.83;23.33;;;4.10;99.90;;;8.06;100.00;100071.78;5438128;26;20548;-75
2024/04/24 01:05:15;;;;;;;38.88;23.10;;;4.20;99.90;;;7.69;100.00;100040.75;5432141;26;20002;-76
2024/04/24 01:07:42;;;;;;;38.45;23.73;;;4.20;99.90;;;7.99;100.00;100062.81;5425615;26;20003;-76
2024/04/24 01:10:17;;;;;;;40.22;23.13;;;4.10;99.90;;;7.86;100.00;100047.41;5375306;26;19999;-75
2024/04/24 01:12:48;;;;;;;40.35;24.20;;;4.10;99.90;;;7.77;100.00;100054.13;5435666;26;20049;-75
2024/04/24 01:15:16;;;;;;;37.20;22.63;;;4.10;99.90;;;7.56;100.00;100052.47;5384205;26;20030;-75
2024/04/24 01:17:47;;;;;;;38.72;23.58;;;4.10;99.90;;;7.35;100.00;99997.41;5418940;26;20475;-75
2024/04/24 01:20:25;;;;;;;41.28;23.73;;;4.10;99.90;;;7.66;100.00;100052.03;5403315;26;20007;-75
2024/04/24 01:23:01;;;;;;;40.75;22.02;;;4.10;99.90;;;7.29;100.00;100028.09;5432059;26;20023;-75
2024/04/24 01:25:57;;;;;;;36.88;23.02;;;4.00;99.90;;;7.63;100.00;100020.75;5397447;26;19999;-74
2024/04/24 01:28:23;;;;;;;37.67;21.95;;;4.00;99.90;;;7.69;100.00;100035.31;5433157;26;19995;-75
2024/04/24 01:30:50;;;;;;;39.53;22.58;;;4.10;99.90;;;7.75;100.00;100035.31;5436580;26;20465;-75
2024/04/24 01:33:16;;;;;;;38.10;22.23;;;4.00;99.90;;;7.73;100.00;100006.72;5439330;26;20338;-75
2024/04/24 01:35:42;;;;;;;39.53;23.00;;;4.00;99.90;;;7.76;100.00;100038.88;5404126;26;20009;-76
2024/04/24 01:38:08;;;;;;;40.22;22.95;;;4.10;99.90;;;7.66;100.00;100041.19;5405619;26;20346;-75
2024/04/24 01:40:34;;;;;;;39.72;23.35;;;4.00;99.90;;;7.47;100.00;100003.84;5431744;26;20007;-75
2024/04/24 01:43:00;;;;;;;39.67;22.63;;;4.00;99.90;;;7.49;100.00;100007.19;5418373;26;19995;-76
2024/04/24 01:45:26;;;;;;;36.45;21.00;;;4.00;99.90;;;7.74;100.00;100016.53;5391722;26;20018;-75
2024/04/24 01:47:52;;;;;;;40.00;22.48;;;4.00;99.90;;;7.85;100.00;100025.91;5431040;26;19995;-75
2024/04/24 01:50:18;;;;;;;37.97;21.75;;;4.00;99.90;;;7.94;100.00;100030.03;5416449;26;20010;-76
2024/04/24 01:52:44;;;;;;;37.08;21.75;;;4.00;99.90;;;7.75;100.00;100019.03;5416561;26;20007;-76
2024/04/24 01:55:10;;;;;;;37.10;21.25;;;3.90;99.90;;;7.46;100.00;99976.94;5427734;26;19999;-76
2024/04/24 01:57:36;;;;;;;40.40;21.73;;;3.90;99.90;;;7.77;100.00;100010.69;5434169;26;20014;-75
2024/04/24 02:00:02;;;;;;;34.95;19.77;;;3.90;99.90;;;7.82;100.00;99991.84;5427636;26;19998;-75
2024/04/24 02:02:38;;;;;;;34.63;19.08;;;3.90;99.90;;;7.70;100.00;100021.53;5427055;26;20007;-75
2024/04/24 02:05:04;;;;;;;32.03;19.20;;;3.90;99.90;;;7.37;100.00;99972.75;5435739;26;20133;-75
2024/04/24 02:07:30;;;;;;;31.25;18.70;;;3.90;99.90;;;7.83;100.00;100007.09;5422507;26;19999;-75
2024/04/24 02:09:56;;;;;;;33.10;17.65;;;3.90;99.90;;;7.61;100.00;99998.41;5418684;26;19999;-74
2024/04/24 02:12:22;;;;;;;29.02;16.35;;;3.90;99.90;;;7.62;100.00;100003.59;5419862;26;20003;-76
2024/04/24 02:14:48;;;;;;;27.65;14.75;;;3.80;99.90;;;7.45;100.00;99994.28;5417257;26;20402;-75
2024/04/24 02:17:14;;;;;;;22.17;13.68;;;3.80;99.90;;;7.36;100.00;100000.94;5424906;26;19998;-75
2024/04/24 02:19:42;;;;;;;21.90;12.90;;;3.80;99.90;;;7.38;100.00;99985.28;5426913;26;20079;-75
2024/04/24 02:22:09;;;;;;;20.02;12.30;;;3.80;99.90;;;7.42;100.00;99975.66;5425515;26;20014;-75
2024/04/24 02:27:19;;;;;;;19.45;12.15;;;3.70;99.90;;;7.04;100.00;99960.94;5418399;26;20311;-75
2024/04/24 02:29:45;;;;;;;23.33;12.82;;;3.70;99.90;;;7.33;100.00;99981.34;5423967;26;20013;-75
2024/04/24 02:32:11;;;;;;;21.65;13.50;;;3.70;99.90;;;7.52;100.00;99986.09;5418177;26;20000;-75
2024/04/24 02:34:37;;;;;;;22.58;13.13;;;3.70;99.90;;;7.26;100.00;99936.25;5417572;26;20027;-76
2024/04/24 02:37:04;;;;;;;24.45;14.48;;;3.70;99.90;;;7.19;100.00;99947.97;5417637;26;20000;-76
2024/04/24 02:39:30;;;;;;;24.60;14.25;;;3.70;99.90;;;7.39;100.00;99965.25;5410064;26;20011;-76
2024/04/24 02:41:56;;;;;;;22.48;13.60;;;3.70;99.90;;;7.03;100.00;99926.72;5427074;26;20130;-75
2024/04/24 02:44:22;;;;;;;20.83;13.50;;;3.60;99.90;;;7.32;100.00;99962.56;5414308;26;20522;-75
2024/04/24 02:46:48;;;;;;;22.67;14.20;;;3.60;99.90;;;7.49;100.00;99961.03;5397834;26;20003;-76
2024/04/24 02:49:14;;;;;;;22.67;13.77;;;3.50;99.90;;;7.37;100.00;99957.31;5445081;26;20025;-76
2024/04/24 02:51:40;;;;;;;23.63;14.35;;;3.60;99.90;;;7.45;100.00;99948.13;5419051;26;20002;-76
2024/04/24 02:54:06;;;;;;;23.75;14.13;;;3.50;99.90;;;7.10;100.00;99905.00;5411728;26;20003;-76
2024/04/24 02:56:32;;;;;;;24.30;13.75;;;3.50;99.90;;;7.20;100.00;99951.53;5435204;26;20334;-76
2024/04/24 02:58:58;;;;;;;29.30;14.95;;;3.60;99.90;;;7.24;100.00;99936.50;5402447;26;20335;-76
2024/04/24 03:01:24;;;;;;;23.48;14.07;;;3.60;99.90;;;7.40;100.00;99923.50;5432468;26;20375;-76
2024/04/24 03:03:51;;;;;;;25.83;14.70;;;3.60;99.90;;;7.31;100.00;99937.28;5428951;26;20000;-76
2024/04/24 03:06:17;;;;;;;25.42;15.63;;;3.60;99.90;;;7.46;100.00;99952.50;5391744;26;20331;-76
2024/04/24 03:08:43;;;;;;;29.08;15.77;;;3.60;99.90;;;7.22;100.00;99918.75;5388030;26;20007;-75
2024/04/24 03:11:09;;;;;;;26.23;15.43;;;3.60;99.90;;;7.57;100.00;99946.41;5422108;26;20000;-75
2024/04/24 03:13:36;;;;;;;30.90;16.35;;;3.50;99.90;;;7.37;100.00;99913.91;5406353;26;20003;-76
2024/04/24 03:16:02;;;;;;;28.10;16.67;;;3.50;99.90;;;7.35;100.00;99935.00;5432266;26;19995;-76
2024/04/24 03:18:28;;;;;;;25.33;15.13;;;3.50;99.90;;;6.61;100.00;99880.88;5393811;26;20014;-74
2024/04/24 03:20:55;;;;;;;25.75;15.10;;;3.50;99.90;;;7.02;100.00;99895.19;5388403;26;20053;-76
2024/04/24 03:23:21;;;;;;;27.10;15.07;;;3.40;99.90;;;7.02;100.00;99873.50;5424506;26;20004;-76
2024/04/24 03:25:47;;;;;;;26.67;15.48;;;3.50;99.90;;;7.09;100.00;99906.88;5425780;26;20334;-75
2024/04/24 03:28:12;;;;;;;26.25;15.45;;;3.50;99.90;;;7.33;100.00;99932.50;5385150;26;20004;-76
2024/04/24 03:30:38;;;;;;;28.02;15.30;;;3.40;99.90;;;6.85;100.00;99862.28;5397804;26;20332;-75
2024/04/24 03:33:05;;;;;;;28.75;14.57;;;3.40;99.90;;;7.26;100.00;99918.13;5403806;26;20013;-76
2024/04/24 03:35:31;;;;;;;23.67;15.18;;;3.30;99.90;;;6.82;100.00;99877.09;5397101;26;19999;-75
2024/04/24 03:37:58;;;;;;;25.80;13.65;;;3.30;99.90;;;7.02;100.00;99915.03;5401652;26;20009;-76
2024/04/24 03:40:24;;;;;;;23.27;12.93;;;3.30;99.90;;;6.92;100.00;99909.22;5424032;26;19995;-75
2024/04/24 03:42:51;;;;;;;26.90;14.10;;;3.30;99.90;;;6.91;100.00;99902.13;5433102;26;20012;-75
2024/04/24 03:45:17;;;;;;;28.20;12.73;;;3.30;99.90;;;6.71;100.00;99865.03;5382088;26;20015;-74
2024/04/24 03:47:43;;;;;;;24.58;12.95;;;3.30;99.90;;;6.99;100.00;99880.19;5394465;26;20031;-76
2024/04/24 03:50:09;;;;;;;23.00;12.80;;;3.30;99.90;;;7.14;100.00;99912.50;5403982;26;20007;-76
2024/04/24 03:52:35;;;;;;;29.73;12.35;;;3.30;99.90;;;7.20;100.00;99899.97;5401785;26;20001;-76
2024/04/24 03:55:01;;;;;;;23.02;12.02;;;3.40;99.90;;;7.40;100.00;99896.34;5390029;26;19999;-76
2024/04/24 03:57:27;;;;;;;25.23;12.75;;;3.40;99.90;;;7.41;100.00;99898.00;5388971;26;20005;-76
2024/04/24 03:59:54;;;;;;;23.55;11.95;;;3.40;99.90;;;7.29;100.00;99844.44;5381597;26;20000;-76
2024/04/24 04:02:20;;;;;;;25.77;12.48;;;3.40;99.90;;;7.52;100.00;99894.66;5393536;26;20069;-76
2024/04/24 04:04:46;;;;;;;25.38;12.07;;;3.40;99.90;;;7.59;100.00;99895.44;5410076;26;19999;-76
2024/04/24 04:07:12;;;;;;;19.70;10.88;;;3.40;99.90;;;7.23;100.00;99886.00;5375330;26;20018;-76
2024/04/24 04:09:39;;;;;;;23.05;11.48;;;3.40;99.90;;;7.32;100.00;99879.25;5398417;26;20004;-76
2024/04/24 04:12:10;;;;;;;21.73;10.82;;;3.40;99.90;;;7.23;100.00;99871.56;5404093;26;20015;-76
2024/04/24 04:14:36;;;;;;;23.58;11.32;;;3.40;99.90;;;7.20;100.00;99865.53;5411932;26;20011;-76
2024/04/24 04:17:02;;;;;;;19.13;11.35;;;3.40;99.90;;;7.28;100.00;99883.47;5413832;26;20528;-76
2024/04/24 04:19:28;;;;;;;18.42;10.63;;;3.40;99.90;;;7.43;100.00;99880.47;5414911;26;19996;-75
2024/04/24 04:21:54;;;;;;;17.88;10.25;;;3.40;99.90;;;7.39;100.00;99873.81;5409664;26;20398;-75
2024/04/24 04:24:20;;;;;;;20.30;11.02;;;3.50;99.90;;;7.59;100.00;99881.88;5406271;26;20319;-76
2024/04/24 04:26:47;;;;;;;22.98;10.77;;;3.50;99.90;;;7.32;100.00;99873.03;5420885;26;20027;-76
2024/04/24 04:29:13;;;;;;;19.63;10.23;;;3.50;99.90;;;7.11;100.00;99885.81;5419982;26;20017;-76
2024/04/24 04:31:39;;;;;;;18.35;10.60;;;3.50;99.90;;;7.45;100.00;99880.28;5414486;26;20000;-76
2024/04/24 04:34:05;;;;;;;23.38;11.43;;;3.50;99.90;;;7.22;100.00;99840.91;5416961;26;20000;-76
2024/04/24 04:36:31;;;;;;;19.65;10.50;;;3.50;99.90;;;7.68;100.00;99871.59;5371775;26;20462;-76
2024/04/24 04:38:57;;;;;;;20.63;10.20;;;3.50;99.90;;;7.22;100.00;99861.78;5386970;26;20019;-76
2024/04/24 04:41:23;;;;;;;20.67;10.57;;;3.60;99.90;;;7.71;100.00;99884.75;5406177;26;19999;-78
2024/04/24 04:43:49;;;;;;;16.83;10.43;;;3.60;99.90;;;7.82;100.00;99877.78;5412626;26;20000;-78
2024/04/24 04:46:15;;;;;;;20.45;10.77;;;3.60;99.90;;;7.82;100.00;99874.22;5435601;26;20036;-76
2024/04/24 04:48:41;;;;;;;19.98;10.82;;;3.70;99.90;;;7.60;100.00;99837.38;5415232;26;20023;-77
2024/04/24 04:51:08;;;;;;;24.10;10.65;;;3.80;99.90;;;7.78;100.00;99852.13;5415711;26;20007;-77
2024/04/24 04:53:36;;;;;;;21.05;10.75;;;3.80;99.90;;;7.79;100.00;99872.81;5414491;26;20463;-78
2024/04/24 04:56:02;;;;;;;20.58;11.38;;;3.80;99.90;;;7.92;100.00;99858.31;5386127;26;20014;-77
2024/04/24 04:58:29;;;;;;;17.67;10.95;;;3.90;99.90;;;7.97;100.00;99846.81;5420299;26;20014;-76
2024/04/24 05:00:55;;;;;;;20.48;10.45;;;3.90;99.90;;;8.05;100.00;99869.06;5402505;26;20011;-77
2024/04/24 05:03:21;;;;;;;19.80;10.65;;;4.00;99.90;;;7.82;100.00;99855.22;5441678;26;20181;-76
2024/04/24 05:05:47;;;;;;;18.95;9.95;;;3.90;99.90;;;7.69;100.00;99847.97;5433725;26;20478;-78
2024/04/24 05:08:14;;;;;;;16.88;9.68;;;4.00;99.90;;;7.99;100.00;99866.44;5419388;26;20324;-77
2024/04/24 05:10:40;;;;;;;23.63;11.23;;;4.00;99.90;;;7.81;100.00;99813.66;5372125;26;20039;-79
2024/04/24 05:13:13;;;;;;;21.50;9.93;;;4.00;99.90;;;7.88;99.80;99836.19;5407020;26;20013;-83
2024/04/24 05:15:39;;;;;;;29.17;10.50;;;4.10;99.90;;;7.97;97.71;99830.50;5417242;26;20009;-81
2024/04/24 05:18:07;;;;;;;21.10;10.45;;;4.10;99.90;;;8.02;98.40;99811.66;5396328;26;20001;-83
2024/04/24 05:20:33;;;;;;;20.13;10.60;;;4.20;99.90;;;7.98;98.21;99805.00;5405825;26;19995;-81
2024/04/24 05:23:04;;;;;;;18.88;10.38;;;4.20;99.90;;;8.25;96.72;99838.22;5392082;26;19999;-81
2024/04/24 05:25:36;;;;;;;24.40;10.10;;;4.40;99.90;;;8.26;96.24;99815.41;5416008;26;19996;-81
2024/04/24 05:30:51;;;;;;;16.13;8.37;;;4.40;99.90;;;7.99;96.16;99798.53;5448814;26;20272;-78
2024/04/24 05:33:17;;;;;;;14.45;7.93;;;4.50;99.90;;;8.25;93.68;99799.34;5448203;26;20002;-79
2024/04/24 05:35:44;;;;;;;14.38;7.05;;;4.60;99.90;;;8.51;93.21;99798.31;5451771;26;20006;-79
2024/04/24 05:38:10;;;;;;;14.68;7.63;;;4.60;99.90;;;8.61;89.67;99778.75;5443682;26;20000;-79
2024/04/24 05:40:36;;;;;;;13.82;7.10;;;4.70;99.90;;;8.54;88.73;99818.78;5445663;26;20002;-79
2024/04/24 05:43:06;;;;;;;11.52;6.63;;;4.80;99.90;;;8.77;86.98;99799.94;5415300;26;20363;-79
2024/04/24 05:45:32;;;;;;;21.25;7.03;;;4.90;99.90;;;9.09;85.08;99811.72;5411119;26;19999;-78
2024/04/24 05:48:01;;;;;;;12.05;6.05;;;5.00;99.90;;;8.87;83.82;99810.25;5433183;26;20453;-82
2024/04/24 05:50:27;;;;;;;14.15;6.50;;;5.00;99.90;;;9.00;82.89;99763.03;5437454;26;20012;-81
2024/04/24 05:52:53;;;;;;;11.85;5.50;;;5.10;99.90;;;9.24;81.49;99787.66;5427343;26;20401;-78
2024/04/24 05:55:19;;;;;;;10.80;5.53;;;5.20;99.90;;;8.62;82.87;99762.22;5387547;26;20332;-81
2024/04/24 05:57:46;;;;;;;15.90;5.90;;;5.10;99.90;;;9.19;83.39;99804.69;5417216;26;20006;-80
2024/04/24 06:00:13;;;;;;;12.07;4.97;;;5.20;99.90;;;8.99;81.91;99783.13;5412807;26;20000;-81
2024/04/24 06:02:39;;;;;;;13.95;4.95;;;5.20;99.90;;;9.15;82.35;99805.34;5416827;26;20007;-80
2024/04/24 06:05:06;;;;;;;18.70;5.47;;;5.30;99.90;;;8.83;82.45;99789.19;5441258;26;20003;-80
2024/04/24 06:07:32;;;;;;;10.15;4.72;;;5.40;99.90;;;8.91;81.10;99775.28;5397977;26;20000;-81
2024/04/24 06:09:58;;;;;;;12.77;4.55;;;5.40;99.90;;;9.46;81.82;99814.38;5439897;26;19999;-81
2024/04/24 06:12:26;;;;;;;14.50;4.40;;;5.50;99.90;;;8.95;78.71;99787.38;5436408;26;20068;-80
2024/04/24 06:14:53;;;;;;;8.35;3.90;;;5.50;99.90;;;9.02;78.49;99804.47;5442800;26;20002;-81
2024/04/24 06:17:19;;;;;;;12.18;4.65;;;5.60;99.90;;;9.41;78.57;99809.63;5413147;26;20003;-81
2024/04/24 06:19:48;;;;;;;9.07;3.25;;;5.60;99.90;;;9.23;77.90;99801.50;5434961;26;19999;-80
2024/04/24 06:22:14;;;;;;;10.25;3.28;;;5.60;99.90;;;9.53;76.80;99790.63;5422302;26;19995;-80
2024/04/24 06:24:40;;;;;;;8.52;3.35;;;5.70;99.90;;;9.25;75.16;99785.78;5416604;26;20048;-80
2024/04/24 06:27:07;;;;;;;9.68;3.03;;;5.70;99.90;;;8.94;75.00;99802.03;5413197;26;20034;-81
2024/04/24 06:29:33;;;;;;;14.23;3.03;;;5.70;99.90;;;9.23;74.94;99766.94;5412255;26;20003;-79
2024/04/24 06:31:59;;;;;;;11.50;3.03;;;5.70;99.90;;;9.40;73.24;99772.56;5408788;26;20010;-80
2024/04/24 06:34:25;;;;;;;9.88;3.00;;;5.80;99.90;;;9.10;74.78;99797.88;5431704;26;20079;-78
2024/04/24 06:36:52;;;;;;;12.32;3.05;;;5.80;99.90;;;9.19;74.76;99787.50;5418041;26;19999;-82
2024/04/24 06:39:18;;;;;;;6.03;2.65;;;5.70;99.90;;;9.62;73.27;99791.97;5407416;26;20021;-82
2024/04/24 06:41:44;;;;;;;12.45;2.70;;;5.80;99.90;;;9.95;71.45;99783.53;5381701;26;20050;-82
2024/04/24 06:49:36;;;;;;;9.35;2.80;;;6.00;99.90;;;10.00;71.20;99789.09;5393695;26;20043;-80
2024/04/24 06:52:04;;;;;;;12.30;2.97;;;6.10;99.90;;;9.79;70.17;99781.25;5361699;26;20011;-79
2024/04/24 06:54:31;;;;;;;13.98;2.97;;;6.20;99.90;;;10.15;72.45;99791.38;5364456;26;20011;-82
2024/04/24 06:56:57;;;;;;;8.63;2.77;;;6.30;99.90;;;9.93;70.96;99783.75;5378089;26;19996;-79
2024/04/24 06:59:25;;;;;;;6.63;2.75;;;6.20;99.90;;;10.16;70.55;99793.88;5377216;26;20018;-79
2024/04/24 07:01:52;;;;;;;9.80;3.22;;;6.20;99.90;;;10.20;68.49;99770.53;5377989;26;20073;-79
2024/04/24 07:04:20;;;;;;;11.90;2.85;;;6.20;99.90;;;9.95;69.75;99787.09;5376144;26;20011;-79
2024/04/24 07:06:45;;;;;;;8.77;3.00;;;6.30;99.90;;;10.17;70.77;99789.25;5376168;26;20000;-81
2024/04/24 07:09:12;;;;;;;9.27;2.83;;;6.40;99.90;;;10.24;70.13;99783.69;5379795;26;20044;-81
2024/04/24 07:11:38;;;;;;;9.52;2.72;;;6.40;99.90;;;10.49;68.12;99767.13;5378509;26;20000;-81
2024/04/24 07:14:05;;;;;;;9.35;2.95;;;6.40;99.90;;;9.83;68.72;99776.16;5378205;26;20073;-81
2024/04/24 07:16:31;;;;;;;6.50;2.50;;;6.40;99.90;;;10.68;69.92;99778.75;5407069;26;20007;-80
2024/04/24 07:18:57;;;;;;;6.75;2.60;;;6.50;99.90;;;10.65;69.97;99777.31;5374979;26;20014;-79
2024/04/24 07:21:25;;;;;;;7.60;2.72;;;6.50;99.90;;;10.29;71.97;99772.91;5331830;26;20414;-83
2024/04/24 07:23:52;;;;;;;12.57;3.10;;;6.60;99.90;;;10.03;72.56;99775.84;5402877;26;20374;-81
2024/04/24 07:26:19;;;;;;;9.90;3.10;;;6.50;99.90;;;10.51;71.10;99762.28;5379551;26;20011;-80
2024/04/24 07:28:45;;;;;;;17.45;3.25;;;6.60;99.90;;;10.20;68.86;99756.91;5373460;26;20380;-80
2024/04/24 07:31:11;;;;;;;13.48;2.95;;;6.80;99.90;;;10.34;69.35;99753.91;5405600;26;20336;-80
2024/04/24 07:33:37;;;;;;;9.07;2.58;;;6.70;99.90;;;10.67;68.71;99763.44;5378690;26;20015;-79
2024/04/24 07:36:04;;;;;;;9.60;2.30;;;6.80;99.90;;;10.24;67.23;99753.69;5378417;26;20011;-80
2024/04/24 07:38:30;;;;;;;7.88;2.13;;;6.60;99.90;;;10.71;66.67;99759.16;5377150;26;20004;-81
2024/04/24 07:41:00;;;;;;;7.97;2.15;;;6.70;99.90;;;10.92;67.49;99748.69;5423895;26;19997;-84
2024/04/24 07:43:27;;;;;;;9.68;2.15;;;6.70;99.90;;;10.37;64.61;99742.56;5366931;26;20016;-81
2024/04/24 07:45:54;;;;;;;8.63;2.38;;;6.80;99.90;;;10.41;66.67;99743.78;5396182;26;20012;-84
2024/04/24 07:48:20;;;;;;;10.13;2.75;;;6.70;99.90;;;9.74;67.02;99713.03;5379989;26;20020;-84
2024/04/24 07:50:47;;;;;;;9.52;2.38;;;6.70;99.90;;;10.02;66.56;99744.22;5400718;26;20004;-83
2024/04/24 07:53:14;;;;;;;10.57;2.20;;;6.70;99.90;;;9.99;67.24;99747.41;5384708;26;20011;-83
2024/04/24 07:55:41;;;;;;;9.45;2.10;;;6.60;99.90;;;10.38;65.63;99719.69;5385337;26;20023;-83
2024/04/24 07:58:08;;;;;;;12.03;2.40;;;6.70;99.90;;;10.31;65.00;99727.13;5387104;26;20007;-84
2024/04/24 08:00:35;;;;;;;11.88;2.28;;;6.80;99.90;;;10.55;63.89;99686.25;5380863;26;20015;-85
2024/04/24 08:03:02;;;;;;;16.38;3.97;;;6.90;99.90;;;10.46;63.65;99730.25;5390158;26;19995;-85
2024/04/24 08:05:30;;;;;;;8.85;2.67;;;7.00;99.90;;;10.76;63.36;99734.72;5414121;26;20044;-85
2024/04/24 08:07:56;;;;;;;7.47;1.98;;;7.10;99.90;;;11.21;62.20;99714.03;5377455;26;20408;-85
2024/04/24 08:10:25;;;;;;;7.80;2.33;;;7.30;99.90;;;10.88;62.74;99723.78;5381957;26;20098;-86
2024/04/24 08:12:52;;;;;;;11.60;1.75;;;7.50;99.90;;;10.74;61.22;99708.72;5352501;26;20074;-83
2024/04/24 08:15:19;;;;;;;8.68;2.03;;;7.50;99.90;;;10.74;61.77;99686.91;5378682;26;20000;-82
2024/04/24 08:17:47;;;;;;;13.63;1.98;;;7.40;99.90;;;10.96;60.83;99714.38;5428661;26;20081;-83
2024/04/24 08:20:14;;;;;;;9.15;2.20;;;7.40;99.90;;;10.47;62.06;99721.00;5411668;26;20011;-85
2024/04/24 08:22:42;;;;;;;8.23;1.77;;;7.30;99.90;;;9.87;62.56;99709.25;5412505;26;19999;-85
2024/04/24 08:25:09;;;;;;;6.38;1.77;;;6.90;99.90;;;10.40;63.07;99733.94;5365346;26;20006;-83
2024/04/24 08:27:36;;;;;;;9.93;2.55;;;7.00;99.90;;;10.28;62.33;99731.19;5392720;26;20001;-84
2024/04/24 08:30:04;;;;;;;10.50;1.90;;;7.00;99.90;;;10.73;63.12;99735.19;5374633;26;20036;-83
2024/04/24 08:32:30;;;;;;;6.05;1.88;;;7.20;99.90;;;10.08;63.39;99728.81;5382853;26;20238;-82
2024/04/24 08:34:59;;;;;;;5.60;1.90;;;7.00;99.90;;;10.32;62.75;99723.34;5373836;26;20003;-83
2024/04/24 08:37:29;;;;;;;7.03;2.00;;;7.10;99.90;;;10.49;62.37;99729.78;5362931;26;19996;-85
2024/04/24 08:39:56;;;;;;;5.28;2.08;;;7.00;99.90;;;10.71;62.75;99740.06;5382359;26;20010;-83
2024/04/24 08:42:24;;;;;;;9.75;2.00;;;7.00;99.90;;;10.29;64.44;99734.72;5419185;26;20006;-83
2024/04/24 08:44:55;;;;;;;5.47;1.65;;;6.90;99.90;;;9.80;65.20;99738.47;5372713;26;19999;-83
2024/04/24 08:47:24;;;;;;;6.90;1.60;;;6.70;99.90;;;9.83;66.67;99743.47;5417630;26;20031;-82
2024/04/24 08:49:50;;;;;;;6.90;1.90;;;6.50;99.90;;;10.11;67.20;99747.41;5403474;26;20072;-82
2024/04/24 08:52:20;;;;;;;8.43;1.80;;;6.60;99.90;;;10.31;65.93;99733.44;5383675;26;20016;-85
2024/04/24 08:54:54;;;;;;;4.18;1.70;;;6.80;99.90;;;10.29;64.92;99732.00;5382925;26;20016;-86
2024/04/24 08:57:23;;;;;;;7.53;2.00;;;6.90;99.90;;;10.28;65.30;99730.34;5377140;26;20003;-84
2024/04/24 08:59:53;;;;;;;5.63;1.60;;;6.90;99.90;;;9.88;67.03;99738.16;5399894;26;19996;-83
2024/04/24 09:02:26;;;;;;;6.80;1.58;;;6.90;99.90;;;10.23;67.16;99758.34;5413055;26;20012;-83
2024/04/24 09:04:54;;;;;;;7.13;1.50;;;7.00;99.90;;;10.03;68.49;99734.97;5404348;26;20075;-81
2024/04/24 09:07:22;;;;;;;5.78;1.58;;;7.00;99.90;;;10.52;66.77;99735.81;5346732;26;20069;-81
2024/04/24 09:09:49;;;;;;;;;;;7.00;99.90;;;10.57;67.42;99720.41;5401926;26;20062;-80
2024/04/24 09:12:16;;;;;;;2.47;1.38;;;7.10;99.90;;;10.08;69.73;99739.72;5400259;26;20250;-80
2024/04/24 09:14:44;;;;;;;5.28;1.67;;;7.10;99.90;;;10.28;65.91;99679.41;5395431;26;20420;-81
2024/04/24 09:17:10;;;;;;;7.43;1.85;;;7.10;99.90;;;10.89;63.43;99686.41;5403795;26;19999;-81
2024/04/24 09:19:38;;;;;;;5.20;1.77;;;7.40;99.90;;;11.42;61.26;99675.38;5405586;26;20003;-80
2024/04/24 09:22:04;;;;;;;6.90;1.60;;;;;;;11.63;59.14;99699.22;5365954;26;20013;-82
2024/04/24 09:24:31;;;;;;;6.40;1.70;;;7.80;99.90;;;11.59;57.85;99664.47;5409597;26;20021;-80
2024/04/24 09:26:57;;;;;;;4.07;1.85;;;8.10;99.90;;;11.59;58.95;99681.66;5407414;26;20001;-79
2024/04/24 09:29:23;;;;;;;4.95;1.83;;;8.20;99.90;;;11.80;59.26;99696.53;5404758;26;20343;-80
2024/04/24 09:31:49;;;;;;;5.28;1.58;;;8.30;99.90;;;12.48;56.55;99675.66;5399168;26;20339;-79
2024/04/24 09:34:15;;;;;;;3.90;1.60;;;8.50;99.90;;;12.18;56.96;99647.63;5406978;26;20454;-80
2024/04/24 09:36:42;;;;;;;3.75;1.50;;;8.90;99.90;;;12.85;56.28;99649.56;5400632;26;19999;-79
2024/04/24 09:39:13;;;;;;;4.82;1.83;;;9.20;99.90;;;14.29;53.80;99668.31;5410548;26;20330;-81
2024/04/24 09:41:43;;;;;;;6.65;1.50;;;9.90;99.90;;;14.54;51.73;99648.44;5399102;26;20589;-82
2024/04/24 09:44:13;;;;;;;5.22;1.65;;;10.20;99.90;;;13.24;53.23;99641.19;5412806;26;20038;-81
2024/04/24 09:46:51;;;;;;;5.40;1.52;;;10.20;99.90;;;13.73;53.56;99673.16;5420260;26;20022;-79
2024/04/24 09:49:21;;;;;;;5.03;1.60;;;10.00;99.90;;;13.99;53.10;99670.63;5395197;26;20452;-80
2024/04/24 09:51:49;;;;;;;3.95;1.30;;;10.00;99.90;;;13.26;52.68;99639.03;5430774;26;20012;-81
2024/04/24 09:54:16;;;;;;;5.05;1.55;;;9.90;99.90;;;13.57;52.83;99664.00;5418981;26;20451;-80
2024/04/24 09:56:45;;;;;;;5.07;1.30;;;9.80;99.90;;;12.84;52.87;99645.16;5416224;26;20010;-81
2024/04/24 09:59:14;;;;;;;7.53;2.35;;;9.70;99.90;;;13.00;54.95;99671.63;5394987;26;20037;-81
2024/04/24 10:02:08;;;;;;;2.22;1.15;;;9.70;99.90;;;11.64;55.68;99646.22;5443036;26;19996;-80
2024/04/24 10:04:40;;;;;;;5.93;1.60;;;9.00;99.90;;;12.52;55.51;99685.84;5454068;26;20353;-80
2024/04/24 10:07:10;;;;;;;3.80;1.42;;;9.10;99.90;;;12.47;54.62;99635.69;5410258;26;20063;-82
2024/04/24 10:09:41;;;;;;;3.55;1.30;;;9.40;99.90;;;13.23;54.01;99661.44;5399670;26;20003;-81
2024/04/24 10:12:21;;;;;;;3.92;1.27;;;9.60;99.90;;;13.38;52.39;99656.13;5417172;26;20018;-81
2024/04/24 10:15:09;;;;;;;3.65;1.40;;;9.90;99.90;;;13.92;50.45;99604.19;5435129;26;20023;-80
2024/04/24 10:17:36;;;;;;;2.33;1.00;;;10.20;99.90;;;14.52;49.64;99634.16;5404591;26;20093;-81
2024/04/24 10:20:10;;;;;;;3.58;1.38;;;10.50;99.90;;;14.16;48.26;99601.88;5416467;26;19995;-83
2024/04/24 10:22:39;;;;;;;2.72;1.20;;;10.80;99.90;;;13.37;49.54;99577.75;5426122;26;20044;-81
2024/04/24 10:25:07;;;;;;;4.60;1.23;;;10.50;99.90;;;13.98;48.67;99605.91;5407212;26;20458;-81
2024/04/24 10:27:39;;;;;;;4.32;1.20;;;10.30;99.90;;;14.03;48.99;99605.09;5417475;26;20039;-83
2024/04/24 10:30:08;;;;;;;4.78;1.38;;;10.50;99.90;;;13.02;49.99;99572.81;5425260;26;20002;-83